Time;durP1;ratioP1;P1;durP2;ratioP2;P2;SDS_P1;SDS_P2;PMS_P1;PMS_P2;Temp;Humidity;BMP_temperature;BMP_pressure;BME280_temperature;BME280_humidity;BME280_pressure;Samples;Min_cycle;Max_cycle;Signal;HPM_P1;HPM_P2
2022/05/04 05:05:25;;;;;;;16.23;5.80;;;;;;;;;;4872953;24;20133;-60
2022/05/04 05:07:52;;;;;;;15.48;5.50;;;;;;;;;;4822584;29;20083;-60
2022/05/04 05:10:18;;;;;;;17.75;6.57;;;;;;;;;;4822325;29;20042;-60
2022/05/04 05:12:44;;;;;;;11.73;5.78;;;;;;;;;;4822410;29;20026;-59
2022/05/04 05:17:55;;;;;;;13.00;5.43;;;;;;;;;;4822872;29;20057;-62
2022/05/04 05:20:21;;;;;;;12.55;6.38;;;;;;;;;;4822445;29;20022;-62
2022/05/04 05:22:47;;;;;;;15.88;6.22;;;;;;;;;;4822270;29;20026;-61
2022/05/04 05:25:13;;;;;;;8.75;5.57;;;;;;;;;;4822712;29;20108;-60
2022/05/04 05:27:40;;;;;;;14.55;6.28;;;;;;;;;;4822554;29;20554;-59
2022/05/04 05:30:07;;;;;;;12.15;5.50;;;;;;;;;;4822401;29;20806;-59
2022/05/04 05:32:33;;;;;;;8.77;5.28;;;;;;;;;;4822492;29;20034;-60
2022/05/04 05:34:59;;;;;;;11.50;7.72;;;;;;;;;;4822000;29;20050;-60
2022/05/04 05:37:25;;;;;;;12.93;6.18;;;;;;;;;;4822157;29;20034;-58
2022/05/04 05:39:51;;;;;;;10.32;6.75;;;;;;;;;;4822034;29;20073;-60
2022/05/04 05:42:17;;;;;;;9.40;4.78;;;;;;;;;;4822125;29;20043;-59
2022/05/04 05:44:43;;;;;;;9.40;4.35;;;;;;;;;;4822117;29;20576;-58
2022/05/04 05:47:09;;;;;;;8.27;4.03;;;;;;;;;;4821990;29;20069;-58
2022/05/04 05:49:35;;;;;;;9.93;4.22;;;;;;;;;;4822205;29;20027;-58
2022/05/04 05:52:01;;;;;;;8.73;3.85;;;;;;;;;;4821978;29;20077;-60
2022/05/04 05:54:27;;;;;;;9.40;4.40;;;;;;;;;;4822062;29;20027;-60
2022/05/04 05:56:53;;;;;;;13.13;5.45;;;;;;;;;;4822292;29;20046;-59
2022/05/04 05:59:19;;;;;;;12.45;5.03;;;;;;;;;;4822081;29;20066;-59
2022/05/04 06:01:45;;;;;;;8.30;4.50;;;;;;;;;;4822034;29;20054;-59
2022/05/04 06:04:11;;;;;;;9.35;4.70;;;;;;;;;;4819059;29;20111;-59
2022/05/04 06:06:37;;;;;;;7.13;4.78;;;;;;;;;;4821624;29;20522;-61
2022/05/04 06:09:03;;;;;;;10.43;4.68;;;;;;;;;;4821849;29;20107;-61
2022/05/04 06:11:35;;;;;;;9.40;4.90;;;;;;;;;;4821436;29;20472;-60
2022/05/04 06:14:02;;;;;;;8.57;4.80;;;;;;;;;;4821929;29;20030;-61
2022/05/04 06:16:28;;;;;;;16.77;6.50;;;;;;;;;;4821793;29;20444;-61
2022/05/04 06:18:54;;;;;;;15.65;6.70;;;;;;;;;;4805469;29;20090;-61
2022/05/04 06:21:20;;;;;;;11.77;5.57;;;;;;;;;;4821954;29;20090;-61
2022/05/04 06:23:46;;;;;;;15.57;5.88;;;;;;;;;;4821777;29;20034;-61
2022/05/04 06:26:13;;;;;;;8.77;4.88;;;;;;;;;;4821601;29;20050;-61
2022/05/04 06:28:39;;;;;;;11.23;4.93;;;;;;;;;;4821769;29;20705;-61
2022/05/04 06:34:10;;;;;;;9.25;4.80;;;;;;;;;;4821801;29;20614;-61
2022/05/04 06:36:36;;;;;;;6.68;4.43;;;;;;;;;;4821743;29;20046;-60
2022/05/04 06:39:02;;;;;;;7.93;4.82;;;;;;;;;;4821609;29;20041;-59
2022/05/04 06:41:28;;;;;;;14.90;5.93;;;;;;;;;;4821698;29;20035;-60
2022/05/04 06:43:54;;;;;;;8.80;5.05;;;;;;;;;;4821593;29;20026;-59
2022/05/04 06:46:20;;;;;;;12.57;4.90;;;;;;;;;;4827665;29;20022;-59
2022/05/04 06:48:46;;;;;;;9.65;4.25;;;;;;;;;;4830880;29;20142;-60
2022/05/04 06:51:12;;;;;;;11.13;5.30;;;;;;;;;;4828763;29;20030;-59
2022/05/04 06:53:38;;;;;;;10.77;4.90;;;;;;;;;;4830052;29;20037;-60
2022/05/04 06:56:04;;;;;;;22.15;5.40;;;;;;;;;;4840192;29;20570;-60
2022/05/04 06:58:31;;;;;;;12.48;4.68;;;;;;;;;;4831948;29;20049;-60
2022/05/04 07:00:57;;;;;;;8.30;4.50;;;;;;;;;;4833280;29;20398;-61
2022/05/04 07:03:23;;;;;;;8.90;4.63;;;;;;;;;;4837752;29;20042;-60
2022/05/04 07:05:50;;;;;;;9.00;4.80;;;;;;;;;;4832218;29;20137;-61
2022/05/04 07:08:17;;;;;;;9.63;5.07;;;;;;;;;;4833212;29;20034;-61
2022/05/04 07:10:43;;;;;;;10.10;5.10;;;;;;;;;;4831685;29;20113;-61
2022/05/04 07:13:09;;;;;;;9.32;5.53;;;;;;;;;;4831779;29;20542;-63
2022/05/04 07:15:35;;;;;;;11.43;5.72;;;;;;;;;;4832011;29;20085;-63
2022/05/04 07:18:01;;;;;;;9.55;5.38;;;;;;;;;;4831993;29;20394;-59
2022/05/04 07:20:27;;;;;;;11.55;5.28;;;;;;;;;;4833033;29;20063;-60
2022/05/04 07:22:54;;;;;;;10.10;5.85;;;;;;;;;;4830978;29;20030;-60
2022/05/04 07:25:20;;;;;;;11.48;5.70;;;;;;;;;;4831664;29;20033;-59
2022/05/04 07:27:46;;;;;;;9.23;5.90;;;;;;;;;;4831284;29;20111;-59
2022/05/04 07:30:12;;;;;;;18.50;5.43;;;;;;;;;;4831410;29;20030;-60
2022/05/04 07:32:38;;;;;;;9.35;5.90;;;;;;;;;;4833160;29;20030;-61
2022/05/04 07:35:08;;;;;;;15.20;5.88;;;;;;;;;;4832563;29;20094;-62
2022/05/04 07:37:34;;;;;;;11.75;5.95;;;;;;;;;;4834524;29;20387;-61
2022/05/04 07:42:45;;;;;;;12.07;5.60;;;;;;;;;;4839294;29;20462;-61
2022/05/04 07:45:12;;;;;;;10.50;5.07;;;;;;;;;;4830711;29;20037;-62
2022/05/04 07:47:39;;;;;;;13.85;5.97;;;;;;;;;;4832001;29;20026;-60
2022/05/04 07:50:06;;;;;;;11.50;5.57;;;;;;;;;;4831459;29;20065;-62
2022/05/04 07:52:32;;;;;;;11.27;5.68;;;;;;;;;;4830207;29;20030;-61
2022/05/04 07:54:58;;;;;;;11.88;5.63;;;;;;;;;;4835732;29;20534;-61
2022/05/04 07:57:24;;;;;;;13.77;5.45;;;;;;;;;;4833217;29;20038;-61
2022/05/04 08:05:24;;;;;;;11.38;6.00;;;;;;;;;;4832624;29;20068;-61
2022/05/04 08:07:51;;;;;;;10.07;5.53;;;;;;;;;;4830661;29;20030;-61
2022/05/04 08:10:17;;;;;;;13.20;5.93;;;;;;;;;;4832111;29;20057;-62
2022/05/04 08:12:43;;;;;;;9.02;4.80;;;;;;;;;;4837699;29;20026;-62
2022/05/04 08:15:09;;;;;;;8.45;5.05;;;;;;;;;;4831600;29;20109;-61
2022/05/04 08:17:35;;;;;;;9.95;5.10;;;;;;;;;;4832857;29;20482;-61
2022/05/04 08:20:01;;;;;;;8.80;5.38;;;;;;;;;;4831178;29;20018;-62
2022/05/04 08:22:28;;;;;;;9.65;4.95;;;;;;;;;;4831216;29;20025;-62
2022/05/04 08:24:54;;;;;;;7.88;4.47;;;;;;;;;;4832309;29;20037;-61
2022/05/04 08:27:20;;;;;;;8.75;5.07;;;;;;;;;;4831321;29;20383;-61
2022/05/04 08:29:46;;;;;;;11.80;5.10;;;;;;;;;;4831484;29;20030;-61
2022/05/04 08:32:13;;;;;;;9.70;5.53;;;;;;;;;;4832591;29;20038;-63
2022/05/04 08:34:39;;;;;;;8.30;4.65;;;;;;;;;;4828358;29;20099;-61
2022/05/04 08:37:05;;;;;;;9.93;5.53;;;;;;;;;;4831077;29;20061;-62
2022/05/04 08:39:31;;;;;;;8.35;5.00;;;;;;;;;;4831954;29;20029;-61
2022/05/04 08:42:00;;;;;;;11.30;5.45;;;;;;;;;;4831373;29;20030;-61
2022/05/04 08:44:28;;;;;;;9.63;4.93;;;;;;;;;;4827432;29;20037;-61
2022/05/04 08:46:55;;;;;;;9.18;4.55;;;;;;;;;;4830394;29;20029;-60
2022/05/04 08:49:22;;;;;;;13.00;4.53;;;;;;;;;;4829298;29;20069;-61
2022/05/04 08:51:49;;;;;;;10.60;4.90;;;;;;;;;;4831526;29;20090;-61
2022/05/04 08:54:17;;;;;;;10.77;4.85;;;;;;;;;;4829665;29;20029;-62
2022/05/04 08:56:43;;;;;;;7.55;4.25;;;;;;;;;;4829555;29;20494;-61
2022/05/04 08:59:09;;;;;;;8.80;4.10;;;;;;;;;;4831264;29;20041;-60
2022/05/04 09:01:39;;;;;;;10.35;4.47;;;;;;;;;;4835030;29;20554;-61
2022/05/04 09:04:05;;;;;;;8.57;4.10;;;;;;;;;;4828781;29;20046;-60
2022/05/04 09:06:32;;;;;;;7.25;4.07;;;;;;;;;;4830532;29;20056;-61
2022/05/04 09:09:06;;;;;;;10.23;4.32;;;;;;;;;;4827124;29;20111;-61
2022/05/04 09:11:32;;;;;;;7.32;4.28;;;;;;;;;;4812063;29;20049;-61
2022/05/04 09:13:59;;;;;;;9.15;4.32;;;;;;;;;;4830648;29;20066;-62
2022/05/04 09:16:25;;;;;;;12.45;4.28;;;;;;;;;;4826617;29;20066;-62
2022/05/04 09:18:51;;;;;;;11.57;4.30;;;;;;;;;;4821859;29;20035;-62
2022/05/04 09:21:22;;;;;;;11.43;4.03;;;;;;;;;;4822216;29;20026;-62
2022/05/04 09:23:52;;;;;;;7.88;4.43;;;;;;;;;;4825001;29;20018;-62
2022/05/04 09:26:19;;;;;;;7.97;4.03;;;;;;;;;;4829126;29;20511;-62
2022/05/04 09:28:48;;;;;;;7.80;3.90;;;;;;;;;;4829508;29;20054;-62
2022/05/04 09:31:14;;;;;;;6.28;3.50;;;;;;;;;;4829274;29;20066;-62
2022/05/04 09:33:41;;;;;;;5.55;3.00;;;;;;;;;;4830473;29;20033;-61
2022/05/04 09:36:07;;;;;;;8.05;3.63;;;;;;;;;;4828831;29;20054;-61
2022/05/04 09:46:52;;;;;;;5.93;3.70;;;;;;;;;;4830081;29;20102;-62
2022/05/04 09:49:21;;;;;;;6.63;3.85;;;;;;;;;;4837644;29;20018;-62
2022/05/04 09:51:53;;;;;;;8.43;3.67;;;;;;;;;;4837450;29;20168;-61
2022/05/04 09:54:20;;;;;;;4.70;3.30;;;;;;;;;;4834735;29;20141;-62
2022/05/04 09:56:54;;;;;;;9.10;3.58;;;;;;;;;;4833318;29;20058;-61
2022/05/04 09:59:23;;;;;;;10.15;4.00;;;;;;;;;;4837160;29;20022;-62
2022/05/04 10:01:51;;;;;;;8.65;3.53;;;;;;;;;;4837326;29;20841;-62
2022/05/04 10:04:17;;;;;;;8.15;3.83;;;;;;;;;;4836915;29;20129;-62
2022/05/04 10:06:44;;;;;;;8.30;3.42;;;;;;;;;;4824483;29;20474;-61
2022/05/04 10:09:10;;;;;;;6.43;3.45;;;;;;;;;;4837648;29;20120;-62
2022/05/04 10:11:37;;;;;;;6.90;3.03;;;;;;;;;;4820783;29;20041;-61
2022/05/04 10:14:05;;;;;;;8.32;3.13;;;;;;;;;;4819109;29;20034;-62
2022/05/04 10:16:38;;;;;;;8.32;3.00;;;;;;;;;;4819653;29;20142;-62
2022/05/04 10:19:06;;;;;;;6.93;3.28;;;;;;;;;;4827318;29;20372;-61
2022/05/04 10:21:33;;;;;;;6.22;3.13;;;;;;;;;;4836976;29;20379;-61
2022/05/04 10:24:02;;;;;;;5.32;3.28;;;;;;;;;;4836774;29;20576;-61
2022/05/04 10:26:34;;;;;;;7.47;3.15;;;;;;;;;;4833286;29;20018;-61
2022/05/04 10:31:53;;;;;;;6.50;3.35;;;;;;;;;;4814915;29;20460;-62
2022/05/04 10:34:19;;;;;;;4.28;3.10;;;;;;;;;;4824952;29;20125;-62
2022/05/04 10:36:46;;;;;;;5.35;3.33;;;;;;;;;;4833823;29;20069;-62
2022/05/04 10:39:18;;;;;;;5.93;3.17;;;;;;;;;;4829350;29;20038;-62
2022/05/04 10:41:45;;;;;;;8.00;3.45;;;;;;;;;;4829718;29;20099;-61
2022/05/04 10:44:11;;;;;;;11.65;3.33;;;;;;;;;;4841481;29;20056;-62
2022/05/04 10:46:41;;;;;;;7.57;3.60;;;;;;;;;;4834486;29;20026;-62
2022/05/04 10:49:09;;;;;;;7.13;3.30;;;;;;;;;;4833239;29;20034;-62
2022/05/04 10:51:50;;;;;;;6.20;3.40;;;;;;;;;;4831798;29;20026;-62
2022/05/04 10:54:22;;;;;;;8.27;3.63;;;;;;;;;;4830735;29;20054;-63
2022/05/04 10:56:51;;;;;;;10.27;3.50;;;;;;;;;;4831273;29;20449;-62
2022/05/04 10:59:27;;;;;;;7.70;3.30;;;;;;;;;;4832247;29;20037;-62
2022/05/04 11:01:57;;;;;;;6.80;3.63;;;;;;;;;;4813042;29;20602;-62
2022/05/04 11:04:24;;;;;;;7.13;3.53;;;;;;;;;;4829122;29;20126;-62
2022/05/04 11:06:57;;;;;;;6.95;3.38;;;;;;;;;;4832457;29;20372;-62
2022/05/04 11:09:25;;;;;;;4.47;3.22;;;;;;;;;;4813402;29;20456;-61
2022/05/04 11:11:52;;;;;;;6.80;4.00;;;;;;;;;;4831736;29;20030;-62
2022/05/04 11:14:19;;;;;;;8.23;3.70;;;;;;;;;;4832808;29;20030;-62
2022/05/04 11:16:46;;;;;;;6.07;3.28;;;;;;;;;;4832078;29;20031;-62
2022/05/04 11:19:12;;;;;;;8.60;3.95;;;;;;;;;;4831521;29;20089;-62
2022/05/04 11:21:39;;;;;;;13.85;3.60;;;;;;;;;;4833043;29;20115;-62
2022/05/04 11:24:09;;;;;;;4.78;3.63;;;;;;;;;;4832066;29;20021;-62
2022/05/04 11:26:41;;;;;;;7.70;3.63;;;;;;;;;;4837507;29;20026;-62
2022/05/04 11:29:07;;;;;;;;;;;;;;;;;;4832667;29;20045;-62
2022/05/04 11:31:33;;;;;;;10.25;3.47;;;;;;;;;;4833218;29;20401;-62
2022/05/04 11:33:59;;;;;;;9.38;3.60;;;;;;;;;;4831118;29;20433;-62
2022/05/04 11:36:25;;;;;;;7.97;4.10;;;;;;;;;;4837836;29;20945;-61
2022/05/04 11:38:53;;;;;;;12.20;3.33;;;;;;;;;;4830599;29;20033;-62
2022/05/04 11:41:20;;;;;;;10.25;3.80;;;;;;;;;;4831154;29;20538;-62
2022/05/04 11:43:48;;;;;;;10.40;3.95;;;;;;;;;;4822287;29;20034;-62
2022/05/04 11:46:14;;;;;;;6.35;3.28;;;;;;;;;;4822261;29;20034;-61
2022/05/04 11:48:42;;;;;;;5.78;3.65;;;;;;;;;;4806049;29;20329;-62
2022/05/04 11:51:08;;;;;;;6.68;3.33;;;;;;;;;;4823166;29;20018;-62
2022/05/04 11:53:34;;;;;;;11.50;3.65;;;;;;;;;;4823176;29;20062;-61
2022/05/04 11:56:03;;;;;;;12.75;3.70;;;;;;;;;;4824225;29;20789;-62
2022/05/04 11:58:30;;;;;;;11.63;3.83;;;;;;;;;;4823523;29;20058;-62
2022/05/04 12:00:56;;;;;;;6.88;3.63;;;;;;;;;;4823464;29;20035;-61
2022/05/04 12:03:24;;;;;;;8.02;3.45;;;;;;;;;;4823208;29;20071;-62
2022/05/04 12:05:50;;;;;;;7.57;3.75;;;;;;;;;;4823380;29;20060;-62
2022/05/04 12:08:19;;;;;;;6.70;3.83;;;;;;;;;;4822794;29;20041;-62
2022/05/04 12:10:45;;;;;;;7.03;3.15;;;;;;;;;;4824481;29;20158;-61
2022/05/04 12:13:14;;;;;;;11.20;3.90;;;;;;;;;;4825554;29;20384;-62
2022/05/04 12:15:41;;;;;;;7.03;3.75;;;;;;;;;;4823081;29;20057;-62
2022/05/04 12:18:07;;;;;;;9.60;4.07;;;;;;;;;;4822697;29;20057;-62
2022/05/04 12:20:34;;;;;;;7.38;3.70;;;;;;;;;;4823437;29;20121;-62
2022/05/04 12:23:01;;;;;;;7.82;4.00;;;;;;;;;;4826130;29;20528;-61
2022/05/04 12:25:27;;;;;;;6.28;3.92;;;;;;;;;;4822549;29;20034;-62
2022/05/04 12:27:55;;;;;;;7.65;4.15;;;;;;;;;;4823040;29;20476;-62
2022/05/04 12:33:10;;;;;;;11.10;3.58;;;;;;;;;;4823068;29;20114;-62
2022/05/04 12:35:37;;;;;;;5.50;3.03;;;;;;;;;;4822765;29;20062;-61
2022/05/04 12:38:04;;;;;;;6.28;2.88;;;;;;;;;;4839778;29;20029;-62
2022/05/04 12:40:34;;;;;;;5.95;3.22;;;;;;;;;;4822691;29;20042;-61
2022/05/04 12:43:00;;;;;;;9.20;3.45;;;;;;;;;;4823019;29;20029;-62
2022/05/04 12:45:27;;;;;;;6.13;3.40;;;;;;;;;;4833083;29;20041;-62
2022/05/04 12:47:57;;;;;;;5.57;3.47;;;;;;;;;;4823754;29;20049;-62
2022/05/04 12:50:24;;;;;;;6.60;3.55;;;;;;;;;;4822388;29;20026;-61
2022/05/04 12:52:50;;;;;;;5.57;3.67;;;;;;;;;;4822433;29;20049;-61
2022/05/04 12:55:17;;;;;;;8.07;3.72;;;;;;;;;;4837641;29;20530;-62
2022/05/04 12:57:43;;;;;;;9.13;3.80;;;;;;;;;;4833756;29;20499;-61
2022/05/04 13:00:13;;;;;;;6.07;3.60;;;;;;;;;;4825165;29;20565;-62
2022/05/04 13:02:42;;;;;;;6.05;3.40;;;;;;;;;;4821054;29;20045;-61
2022/05/04 13:05:09;;;;;;;6.28;3.55;;;;;;;;;;4822077;29;20525;-62
2022/05/04 13:07:35;;;;;;;7.72;3.45;;;;;;;;;;4822402;29;20034;-61
2022/05/04 13:10:02;;;;;;;9.05;3.40;;;;;;;;;;4833529;29;20051;-62
2022/05/04 13:12:28;;;;;;;6.90;2.97;;;;;;;;;;4839396;29;20526;-60
2022/05/04 13:14:54;;;;;;;6.05;3.30;;;;;;;;;;4821976;29;20041;-60
2022/05/04 13:17:20;;;;;;;8.25;3.30;;;;;;;;;;4821376;29;20045;-62
2022/05/04 13:19:47;;;;;;;4.60;2.90;;;;;;;;;;4821253;29;20038;-60
2022/05/04 13:22:13;;;;;;;6.93;3.40;;;;;;;;;;4821713;29;20109;-60
2022/05/04 13:24:39;;;;;;;5.85;2.67;;;;;;;;;;4821962;29;20026;-61
2022/05/04 13:27:06;;;;;;;6.18;3.33;;;;;;;;;;4828799;29;20036;-62
2022/05/04 13:29:32;;;;;;;5.75;3.40;;;;;;;;;;4830531;29;20103;-61
2022/05/04 13:31:58;;;;;;;4.75;2.92;;;;;;;;;;4832243;29;20030;-61
2022/05/04 13:34:24;;;;;;;4.90;2.90;;;;;;;;;;4840118;29;20070;-61
2022/05/04 13:36:50;;;;;;;4.85;3.08;;;;;;;;;;4831682;29;20106;-62
2022/05/04 13:39:16;;;;;;;12.90;3.75;;;;;;;;;;4821429;29;20031;-62
2022/05/04 13:41:43;;;;;;;7.25;3.20;;;;;;;;;;4822171;29;20034;-62
2022/05/04 13:44:09;;;;;;;10.18;3.83;;;;;;;;;;4826226;29;20086;-62
2022/05/04 13:46:35;;;;;;;7.25;3.35;;;;;;;;;;4821766;29;20355;-62
2022/05/04 13:49:01;;;;;;;6.75;3.28;;;;;;;;;;4821773;29;20050;-61
2022/05/04 13:54:12;;;;;;;4.57;2.90;;;;;;;;;;4839116;29;20113;-61
2022/05/04 13:56:38;;;;;;;6.28;3.20;;;;;;;;;;4832520;29;20050;-61
2022/05/04 13:59:05;;;;;;;17.75;4.63;;;;;;;;;;4837816;29;20061;-61
2022/05/04 14:01:31;;;;;;;5.40;3.03;;;;;;;;;;4840272;29;20635;-61
2022/05/04 14:03:57;;;;;;;8.35;3.80;;;;;;;;;;4843339;29;20061;-60
2022/05/04 14:06:23;;;;;;;5.60;3.65;;;;;;;;;;4846221;29;20041;-60
2022/05/04 14:08:49;;;;;;;5.18;4.03;;;;;;;;;;4846071;29;20030;-62
2022/05/04 14:11:16;;;;;;;6.20;3.30;;;;;;;;;;4842820;29;20041;-62
2022/05/04 14:13:42;;;;;;;11.98;5.95;;;;;;;;;;4829872;29;20030;-63
2022/05/04 14:16:10;;;;;;;6.60;4.43;;;;;;;;;;4841101;29;20073;-62
2022/05/04 14:18:36;;;;;;;9.32;4.85;;;;;;;;;;4841701;29;20031;-62
2022/05/04 14:21:03;;;;;;;8.40;3.83;;;;;;;;;;4827652;29;20071;-63
2022/05/04 14:23:33;;;;;;;7.80;4.13;;;;;;;;;;4840726;29;20074;-62
2022/05/04 14:25:59;;;;;;;7.55;3.83;;;;;;;;;;4827758;29;20026;-61
2022/05/04 14:28:28;;;;;;;10.85;4.40;;;;;;;;;;4827492;29;20026;-61
2022/05/04 14:30:55;;;;;;;7.50;3.38;;;;;;;;;;4827826;29;20467;-61
2022/05/04 14:33:21;;;;;;;6.47;3.35;;;;;;;;;;4827651;29;20052;-61
2022/05/04 14:35:47;;;;;;;9.25;3.70;;;;;;;;;;4841149;29;20070;-63
2022/05/04 14:38:13;;;;;;;6.85;4.00;;;;;;;;;;4827533;29;20038;-61
2022/05/04 14:40:40;;;;;;;7.78;3.50;;;;;;;;;;4827756;29;20076;-63
2022/05/04 14:43:06;;;;;;;6.28;3.80;;;;;;;;;;4827759;29;20125;-63
2022/05/04 14:45:32;;;;;;;11.05;4.40;;;;;;;;;;4827637;29;20078;-60
2022/05/04 14:47:58;;;;;;;4.78;3.38;;;;;;;;;;4840096;29;20045;-61
2022/05/04 14:50:24;;;;;;;7.82;3.10;;;;;;;;;;4845732;29;20113;-61
2022/05/04 14:52:51;;;;;;;7.78;3.25;;;;;;;;;;4845619;29;20045;-60
2022/05/04 14:55:17;;;;;;;6.32;3.40;;;;;;;;;;4845764;29;20046;-63
2022/05/04 14:57:43;;;;;;;6.00;3.30;;;;;;;;;;4845619;29;20030;-63
2022/05/04 15:00:09;;;;;;;5.70;3.08;;;;;;;;;;4830065;29;20034;-63
2022/05/04 15:05:01;;;;;;;7.90;3.05;;;;;;;;;;4829767;29;20075;-63
2022/05/04 15:05:21;;;;;;;6.57;3.20;;;;;;;;;;4830991;29;20062;-63
2022/05/04 15:07:49;;;;;;;5.55;3.05;;;;;;;;;;4836495;29;20033;-63
2022/05/04 15:10:16;;;;;;;6.80;3.30;;;;;;;;;;4841803;29;20105;-63
2022/05/04 15:12:42;;;;;;;3.83;3.00;;;;;;;;;;4840959;29;20026;-63
2022/05/04 15:15:08;;;;;;;5.97;3.40;;;;;;;;;;4830701;29;20035;-63
2022/05/04 15:17:34;;;;;;;5.53;3.00;;;;;;;;;;4820567;29;20510;-62
2022/05/04 15:20:00;;;;;;;4.65;3.00;;;;;;;;;;4823547;29;20522;-62
2022/05/04 15:22:26;;;;;;;8.57;3.53;;;;;;;;;;4823271;29;20038;-62
2022/05/04 15:24:52;;;;;;;5.85;3.30;;;;;;;;;;4823379;29;20033;-63
2022/05/04 15:27:18;;;;;;;5.70;3.30;;;;;;;;;;4822937;29;20036;-62
2022/05/04 15:29:44;;;;;;;6.18;3.55;;;;;;;;;;4823466;29;20632;-62
2022/05/04 15:32:10;;;;;;;4.95;3.20;;;;;;;;;;4828542;29;20130;-62
2022/05/04 15:34:36;;;;;;;5.35;2.85;;;;;;;;;;4829403;29;20046;-63
2022/05/04 15:37:03;;;;;;;9.93;3.45;;;;;;;;;;4823456;29;20838;-62
2022/05/04 15:39:31;;;;;;;6.40;3.15;;;;;;;;;;4822714;29;20054;-62
2022/05/04 15:41:57;;;;;;;6.82;3.20;;;;;;;;;;4825062;29;20448;-62
2022/05/04 15:44:23;;;;;;;8.85;3.22;;;;;;;;;;4826353;29;20039;-62
2022/05/04 15:46:49;;;;;;;8.30;3.28;;;;;;;;;;4822738;29;20052;-62
2022/05/04 15:49:15;;;;;;;5.85;3.30;;;;;;;;;;4823297;29;20062;-62
2022/05/04 15:51:41;;;;;;;6.65;3.25;;;;;;;;;;4824045;29;20026;-62
2022/05/04 15:54:08;;;;;;;4.82;3.65;;;;;;;;;;4814397;29;20025;-62
2022/05/04 15:56:37;;;;;;;6.90;3.30;;;;;;;;;;4823527;29;20078;-61
2022/05/04 15:59:03;;;;;;;6.05;3.58;;;;;;;;;;4823576;29;20193;-61
2022/05/04 16:01:29;;;;;;;7.05;3.70;;;;;;;;;;4823789;29;20061;-63
2022/05/04 16:03:59;;;;;;;4.38;3.20;;;;;;;;;;4825864;29;20084;-62
2022/05/04 16:06:26;;;;;;;5.90;2.90;;;;;;;;;;4823659;29;20033;-63
2022/05/04 16:08:52;;;;;;;6.63;3.40;;;;;;;;;;4822907;29;20019;-62
2022/05/04 16:11:19;;;;;;;8.55;4.55;;;;;;;;;;4805536;29;20073;-63
2022/05/04 16:13:45;;;;;;;6.68;3.53;;;;;;;;;;4822347;29;20057;-62
2022/05/04 16:16:11;;;;;;;6.78;3.83;;;;;;;;;;4822996;29;20050;-63
2022/05/04 16:24:07;;;;;;;9.20;4.10;;;;;;;;;;4828588;29;20042;-62
2022/05/04 16:26:34;;;;;;;6.65;3.70;;;;;;;;;;4830457;29;20034;-62
2022/05/04 16:29:01;;;;;;;6.07;3.53;;;;;;;;;;4831432;29;20045;-62
2022/05/04 16:31:27;;;;;;;7.20;3.47;;;;;;;;;;4831058;29;20501;-62
2022/05/04 16:33:53;;;;;;;8.98;3.42;;;;;;;;;;4840941;29;20521;-62
2022/05/04 16:36:19;;;;;;;11.13;6.38;;;;;;;;;;4840776;29;20045;-62
2022/05/04 16:38:45;;;;;;;6.97;3.70;;;;;;;;;;4825048;29;20535;-61
2022/05/04 16:41:11;;;;;;;6.80;3.95;;;;;;;;;;4828298;29;20512;-62
2022/05/04 16:43:37;;;;;;;5.43;3.50;;;;;;;;;;4830033;29;20158;-62
2022/05/04 16:55:16;;;;;;;8.25;3.83;;;;;;;;;;4829569;29;20106;-62
2022/05/04 16:57:46;;;;;;;10.25;4.47;;;;;;;;;;4830081;29;20550;-62
2022/05/04 17:00:12;;;;;;;7.55;3.10;;;;;;;;;;4824929;29;20035;-62
2022/05/04 17:02:38;;;;;;;8.10;4.30;;;;;;;;;;4822682;29;20037;-62
2022/05/04 17:05:05;;;;;;;7.85;4.20;;;;;;;;;;4822214;29;20069;-62
2022/05/04 17:07:31;;;;;;;5.90;3.85;;;;;;;;;;4822551;29;20034;-62
2022/05/04 17:09:58;;;;;;;11.10;5.35;;;;;;;;;;4827883;29;20064;-62
2022/05/04 17:12:25;;;;;;;8.85;3.75;;;;;;;;;;4831954;29;20530;-63
2022/05/04 17:14:51;;;;;;;7.60;3.90;;;;;;;;;;4830755;29;20034;-62
2022/05/04 17:17:17;;;;;;;11.88;4.10;;;;;;;;;;4830489;29;20045;-63
2022/05/04 17:19:43;;;;;;;6.70;3.80;;;;;;;;;;4832278;29;20029;-62
2022/05/04 17:22:09;;;;;;;7.53;3.67;;;;;;;;;;4829865;29;20034;-63
2022/05/04 17:24:36;;;;;;;5.75;3.58;;;;;;;;;;4829822;29;20159;-63
2022/05/04 17:27:03;;;;;;;12.70;4.10;;;;;;;;;;4829960;29;20029;-63
2022/05/04 17:29:30;;;;;;;7.40;3.83;;;;;;;;;;4829538;29;20029;-62
2022/05/04 17:37:26;;;;;;;5.75;3.40;;;;;;;;;;4825802;29;20129;-63
2022/05/04 17:39:53;;;;;;;8.27;3.60;;;;;;;;;;4821532;29;20038;-63
2022/05/04 17:42:19;;;;;;;8.30;4.25;;;;;;;;;;4822070;29;20061;-63
2022/05/04 17:44:45;;;;;;;7.40;4.13;;;;;;;;;;4821871;29;20548;-63
2022/05/04 17:47:11;;;;;;;10.32;4.35;;;;;;;;;;4821714;29;20552;-63
2022/05/04 17:49:37;;;;;;;10.93;4.10;;;;;;;;;;4822019;29;20034;-63
2022/05/04 17:52:03;;;;;;;8.55;4.13;;;;;;;;;;4821620;29;20094;-63
2022/05/04 17:54:29;;;;;;;11.48;4.57;;;;;;;;;;4821700;29;20030;-63
2022/05/04 17:56:55;;;;;;;10.90;5.55;;;;;;;;;;4821103;29;20050;-63
2022/05/04 17:59:21;;;;;;;15.15;5.60;;;;;;;;;;4821790;29;20038;-62
2022/05/04 18:04:32;;;;;;;12.35;6.65;;;;;;;;;;4821303;29;20074;-61
2022/05/04 18:06:59;;;;;;;13.68;6.68;;;;;;;;;;4821721;29;20566;-61
2022/05/04 18:09:25;;;;;;;22.00;10.98;;;;;;;;;;4821787;29;20022;-63
2022/05/04 18:11:51;;;;;;;29.02;14.43;;;;;;;;;;4821610;29;20042;-63
2022/05/04 18:14:17;;;;;;;33.50;16.77;;;;;;;;;;4821475;29;20475;-63
2022/05/04 18:16:43;;;;;;;38.80;17.40;;;;;;;;;;4821458;29;20125;-63
2022/05/04 18:19:09;;;;;;;31.00;16.30;;;;;;;;;;4821707;29;20027;-62
2022/05/04 18:21:36;;;;;;;32.38;15.50;;;;;;;;;;4821428;29;20478;-63
2022/05/04 18:24:02;;;;;;;32.47;16.05;;;;;;;;;;4821513;29;20398;-63
2022/05/04 18:26:28;;;;;;;27.58;15.10;;;;;;;;;;4821442;29;20387;-63
2022/05/04 18:28:54;;;;;;;30.33;16.00;;;;;;;;;;4821472;29;20090;-63
2022/05/04 18:31:21;;;;;;;34.33;18.48;;;;;;;;;;4821795;29;20030;-63
2022/05/04 18:33:47;;;;;;;44.42;25.55;;;;;;;;;;4821598;29;20368;-63
2022/05/04 18:36:29;;;;;;;37.95;20.58;;;;;;;;;;4821100;29;20046;-62
2022/05/04 18:38:56;;;;;;;29.92;16.88;;;;;;;;;;4821578;29;20026;-62
2022/05/04 18:41:23;;;;;;;31.52;16.58;;;;;;;;;;4821413;29;20027;-62
2022/05/04 18:43:49;;;;;;;31.23;16.42;;;;;;;;;;4821650;29;20361;-62
2022/05/04 18:46:15;;;;;;;34.10;18.95;;;;;;;;;;4821411;29;20062;-62
2022/05/04 18:48:41;;;;;;;31.98;19.40;;;;;;;;;;4821442;29;20034;-62
2022/05/04 18:51:07;;;;;;;31.20;18.90;;;;;;;;;;4824528;29;20030;-62
2022/05/04 18:53:33;;;;;;;31.30;19.88;;;;;;;;;;4824381;29;20026;-62
2022/05/04 18:55:59;;;;;;;34.83;18.75;;;;;;;;;;4824480;29;20483;-63
2022/05/04 18:58:26;;;;;;;30.08;17.85;;;;;;;;;;4824840;29;20068;-63
2022/05/04 19:00:52;;;;;;;31.95;19.00;;;;;;;;;;4824537;29;20026;-62
2022/05/04 19:03:18;;;;;;;39.75;23.83;;;;;;;;;;4824344;29;20058;-63
2022/05/04 19:05:44;;;;;;;38.20;17.92;;;;;;;;;;4824556;29;20060;-63
2022/05/04 19:08:10;;;;;;;25.25;15.57;;;;;;;;;;4824585;29;20034;-63
2022/05/04 19:10:37;;;;;;;23.00;12.45;;;;;;;;;;4824271;29;20030;-64
2022/05/04 19:13:03;;;;;;;23.65;13.05;;;;;;;;;;4824317;29;20030;-63
2022/05/04 19:15:29;;;;;;;23.92;14.52;;;;;;;;;;4823974;29;20066;-63
2022/05/04 19:17:55;;;;;;;25.73;12.43;;;;;;;;;;4824155;29;20108;-62
2022/05/04 19:20:21;;;;;;;19.25;11.93;;;;;;;;;;4823909;29;20424;-63
2022/05/04 19:22:47;;;;;;;22.60;12.30;;;;;;;;;;4823578;29;20045;-63
2022/05/04 19:25:14;;;;;;;21.55;12.65;;;;;;;;;;4823883;29;20041;-62
2022/05/04 19:27:40;;;;;;;29.08;15.68;;;;;;;;;;4823971;29;20027;-61
2022/05/04 19:30:06;;;;;;;29.40;15.45;;;;;;;;;;4823957;29;20560;-62
2022/05/04 19:32:32;;;;;;;27.92;13.90;;;;;;;;;;4823526;29;20026;-61
2022/05/04 19:34:59;;;;;;;28.40;15.48;;;;;;;;;;4824023;29;20042;-62
2022/05/04 19:37:25;;;;;;;25.65;13.82;;;;;;;;;;4823614;29;20054;-63
2022/05/04 19:39:51;;;;;;;27.13;14.77;;;;;;;;;;4823006;29;20105;-61
2022/05/04 19:42:17;;;;;;;20.77;10.70;;;;;;;;;;4823785;29;20038;-61
2022/05/04 19:44:43;;;;;;;20.92;10.48;;;;;;;;;;4823657;29;20087;-61
2022/05/04 19:47:10;;;;;;;17.08;11.23;;;;;;;;;;4823844;29;20555;-61
2022/05/04 19:49:36;;;;;;;19.02;11.27;;;;;;;;;;4823170;29;20038;-61
2022/05/04 19:52:03;;;;;;;19.90;10.40;;;;;;;;;;4823296;29;20487;-62
2022/05/04 19:54:29;;;;;;;20.67;11.00;;;;;;;;;;4823763;29;20352;-63
2022/05/04 19:56:55;;;;;;;22.90;10.40;;;;;;;;;;4823541;29;20510;-62
2022/05/04 19:59:21;;;;;;;22.98;10.60;;;;;;;;;;4823619;29;20361;-62
2022/05/04 20:01:47;;;;;;;20.25;11.48;;;;;;;;;;4822788;29;20037;-61
2022/05/04 20:04:13;;;;;;;23.20;11.75;;;;;;;;;;4823613;29;20085;-62
2022/05/04 20:06:40;;;;;;;17.42;10.52;;;;;;;;;;4823637;29;20083;-62
2022/05/04 20:09:06;;;;;;;19.35;10.18;;;;;;;;;;4823286;29;20034;-61
2022/05/04 20:11:32;;;;;;;20.25;10.80;;;;;;;;;;4829965;29;20034;-61
2022/05/04 20:13:58;;;;;;;18.35;10.15;;;;;;;;;;4830354;29;20105;-61
2022/05/04 20:16:24;;;;;;;20.27;10.52;;;;;;;;;;4836270;29;20371;-62
2022/05/04 20:18:50;;;;;;;18.67;10.07;;;;;;;;;;4826251;29;20037;-61
2022/05/04 20:21:16;;;;;;;19.38;9.77;;;;;;;;;;4839877;29;20030;-60
2022/05/04 20:23:45;;;;;;;15.65;9.73;;;;;;;;;;4833445;29;20097;-62
2022/05/04 20:26:11;;;;;;;17.42;9.27;;;;;;;;;;4832951;29;20041;-62
2022/05/04 20:28:37;;;;;;;14.68;8.35;;;;;;;;;;4832162;29;20029;-62
2022/05/04 20:31:03;;;;;;;14.60;8.05;;;;;;;;;;4834632;29;20253;-60